Halifax, Pennsylvania
Current Conditions -  °F | °C
As of 1:56 PM on Sunday 21 Dec 2014 (Local Time) from KCXY Reporting Station
Broken Clouds Broken Clouds  
Wind Chill: 34°   Ceiling: 3000
Heat Index: 34°   Visibility: 10mi
Dew Point: 21°   Wind: 0mph
Humidity: 59%   Direction: NA
Pressure: 30.31"   Gusts: NA
Location:  40.47°N, 76.93°W
Report Text: KCXY 211856Z 00000KT 10SM BKN030 01/M06 A3031 RMK AO2 SLP269 T00111061
Loading
Personal Weather Stations






























Interactive Weather Map New forecast layout! Learn more

10-Day Weather Forecast

Advertisements
Track Severe Weather on mobile